createdAt,value
2023-05-19T00:03:34.198Z,8.92
2023-05-19T00:08:38.908Z,8.81
2023-05-19T00:13:42.294Z,8.77
2023-05-19T00:18:44.091Z,8.99
2023-05-19T00:23:45.980Z,8.91
2023-05-19T00:28:49.080Z,8.57
2023-05-19T00:33:50.814Z,8.36
2023-05-19T00:38:52.530Z,8.46
2023-05-19T00:43:55.710Z,8.43
2023-05-19T00:48:57.389Z,8.36
2023-05-19T00:53:59.348Z,8.27
2023-05-19T00:59:03.002Z,8.09
2023-05-19T01:04:04.852Z,8.00
2023-05-19T01:09:06.637Z,8.03
2023-05-19T01:14:09.761Z,8.21
2023-05-19T01:19:31.585Z,8.20
2023-05-19T01:25:09.087Z,8.19
2023-05-19T01:30:25.759Z,8.24
2023-05-19T01:35:29.088Z,7.81
2023-05-19T01:40:32.489Z,7.93
2023-05-19T01:45:36.817Z,7.92
2023-05-19T01:50:39.611Z,7.76
2023-05-19T01:55:43.950Z,8.08
2023-05-19T02:00:54.112Z,7.97
2023-05-19T02:06:03.273Z,7.57
2023-05-19T02:11:11.876Z,7.72
2023-05-19T02:16:18.649Z,7.59
2023-05-19T02:21:21.495Z,7.73
2023-05-19T02:26:23.423Z,7.98
2023-05-19T02:31:26.452Z,7.64
2023-05-19T02:36:28.346Z,7.72
2023-05-19T02:41:31.042Z,7.78
2023-05-19T02:46:34.154Z,7.41
2023-05-19T02:51:36.120Z,7.53
2023-05-19T02:56:38.013Z,7.58
2023-05-19T03:01:41.256Z,7.56
2023-05-19T03:06:42.990Z,7.37
2023-05-19T03:11:44.560Z,7.64
2023-05-19T03:16:47.540Z,7.50
2023-05-19T03:21:49.137Z,7.32
2023-05-19T03:26:51.224Z,7.58
2023-05-19T03:31:54.478Z,7.50
2023-05-19T03:36:56.096Z,7.67
2023-05-19T03:41:57.794Z,7.84
2023-05-19T03:47:00.879Z,7.48
2023-05-19T03:52:02.416Z,7.50
2023-05-19T03:57:04.420Z,7.30
2023-05-19T04:02:08.445Z,7.41
2023-05-19T04:07:10.900Z,7.72
2023-05-19T04:12:12.454Z,7.50
2023-05-19T04:17:15.647Z,7.43
2023-05-19T04:22:17.322Z,7.34
2023-05-19T04:27:19.093Z,7.59
2023-05-19T04:32:22.069Z,7.32
2023-05-19T04:37:23.619Z,7.16
2023-05-19T04:42:25.234Z,7.25
2023-05-19T04:47:28.548Z,7.31
2023-05-19T04:52:30.117Z,7.28
2023-05-19T04:57:31.665Z,7.59
2023-05-19T05:02:34.701Z,7.79
2023-05-19T05:07:36.305Z,7.56
2023-05-19T05:12:38.647Z,7.67
2023-05-19T05:17:42.261Z,7.71
2023-05-19T05:22:44.374Z,7.75
2023-05-19T05:27:46.070Z,7.96
2023-05-19T05:32:49.548Z,8.11
2023-05-19T05:37:51.193Z,8.20
2023-05-19T05:42:52.768Z,8.46
2023-05-19T05:47:56.516Z,8.60
2023-05-19T05:53:01.724Z,8.40
2023-05-19T05:58:03.296Z,8.60
2023-05-19T06:03:06.702Z,9.32
2023-05-19T06:08:08.400Z,9.10
2023-05-19T06:13:10.148Z,9.36
2023-05-19T06:18:13.057Z,9.09
2023-05-19T06:23:14.677Z,9.06
2023-05-19T06:28:16.567Z,9.31
2023-05-19T06:33:19.469Z,9.35
2023-05-19T06:38:21.113Z,9.66
2023-05-19T06:43:22.703Z,9.37
2023-05-19T06:48:25.748Z,9.21
2023-05-19T06:53:27.365Z,9.48
2023-05-19T06:58:29.039Z,9.30
2023-05-19T07:03:32.243Z,9.39
2023-05-19T07:08:33.937Z,9.81
2023-05-19T07:13:35.483Z,9.58
2023-05-19T07:18:38.513Z,10.32
2023-05-19T07:23:40.068Z,9.33
2023-05-19T07:28:41.800Z,9.55
2023-05-19T07:33:44.817Z,10.06
2023-05-19T07:38:46.974Z,10.24
2023-05-19T07:43:48.679Z,10.78
2023-05-19T07:48:51.699Z,11.05
2023-05-19T07:53:53.423Z,10.90
2023-05-19T07:58:55.067Z,10.57
2023-05-19T08:03:58.176Z,10.34
2023-05-19T08:08:59.847Z,11.12
2023-05-19T08:14:01.400Z,10.98
2023-05-19T08:19:04.473Z,10.76
2023-05-19T08:24:06.577Z,11.14
2023-05-19T08:29:08.190Z,11.11
2023-05-19T08:34:11.077Z,11.10
2023-05-19T08:39:13.277Z,12.25
2023-05-19T08:44:16.594Z,11.80
2023-05-19T08:49:26.674Z,11.73
2023-05-19T08:54:32.970Z,11.81
2023-05-19T08:59:35.036Z,12.10
2023-05-19T09:04:38.904Z,11.60
2023-05-19T09:09:40.694Z,10.66
2023-05-19T09:14:42.405Z,11.35
2023-05-19T09:19:45.756Z,11.20
2023-05-19T09:24:47.711Z,11.12
2023-05-19T09:29:49.555Z,11.13
2023-05-19T09:34:53.415Z,10.92
2023-05-19T09:39:55.079Z,11.45
2023-05-19T09:45:00.365Z,10.47
2023-05-19T09:50:05.175Z,11.64
2023-05-19T09:55:11.408Z,11.70
2023-05-19T10:00:13.722Z,11.08
2023-05-19T10:05:18.073Z,11.08
2023-05-19T10:10:20.313Z,11.66
2023-05-19T10:15:23.374Z,11.91
2023-05-19T10:20:26.857Z,12.03
2023-05-19T10:25:31.230Z,12.20
2023-05-19T10:30:36.777Z,11.73
2023-05-19T10:36:02.200Z,11.91
2023-05-19T10:41:10.582Z,10.52
2023-05-19T10:46:12.503Z,10.96
2023-05-19T10:51:16.101Z,11.25
2023-05-19T10:56:30.740Z,10.37
2023-05-19T11:01:34.042Z,10.51
2023-05-19T11:06:38.609Z,10.80
2023-05-19T11:11:45.905Z,10.47
2023-05-19T11:16:49.001Z,10.87
2023-05-19T11:21:52.786Z,10.82
2023-05-19T11:26:54.749Z,10.73
2023-05-19T11:31:56.496Z,10.55
2023-05-19T11:36:59.685Z,10.75
2023-05-19T11:42:01.552Z,10.67
2023-05-19T11:47:03.715Z,10.48
2023-05-19T11:52:06.978Z,10.54
2023-05-19T11:57:09.237Z,10.96
2023-05-19T12:02:17.533Z,10.82
2023-05-19T12:07:23.320Z,10.89
2023-05-19T12:12:25.061Z,10.54
2023-05-19T12:17:26.721Z,11.56
2023-05-19T12:22:29.730Z,11.32
2023-05-19T12:27:36.198Z,11.18
2023-05-19T12:32:38.204Z,11.72
2023-05-19T12:37:42.332Z,11.39
2023-05-19T12:42:44.920Z,11.45
2023-05-19T12:47:48.896Z,10.99
2023-05-19T12:52:52.029Z,11.04
2023-05-19T12:57:54.458Z,11.09
2023-05-19T13:02:58.522Z,10.94
2023-05-19T13:08:04.883Z,11.12
2023-05-19T13:13:07.805Z,11.10
2023-05-19T13:18:11.325Z,10.65
2023-05-19T13:23:14.701Z,11.08
2023-05-19T13:28:16.349Z,10.78
2023-05-19T13:33:18.085Z,10.98
2023-05-19T13:38:21.035Z,10.62
2023-05-19T13:43:22.596Z,10.92
2023-05-19T13:48:24.252Z,10.66
2023-05-19T13:53:27.326Z,10.64
2023-05-19T13:58:29.040Z,10.94
2023-05-19T14:03:30.837Z,10.92
2023-05-19T14:08:33.946Z,10.91
2023-05-19T14:13:38.358Z,10.71
2023-05-19T14:18:43.775Z,10.84
2023-05-19T14:23:46.700Z,10.71
2023-05-19T14:28:48.261Z,11.10
2023-05-19T14:33:49.901Z,10.91
2023-05-19T14:38:52.968Z,10.94
2023-05-19T14:43:54.631Z,10.86
2023-05-19T14:48:56.347Z,11.05
2023-05-19T14:53:59.318Z,11.04
2023-05-19T14:59:00.976Z,11.05
2023-05-19T15:04:02.678Z,11.29
2023-05-19T15:09:05.699Z,11.23
2023-05-19T15:14:07.270Z,11.16
2023-05-19T15:19:08.843Z,11.62
2023-05-19T15:24:11.931Z,11.53
2023-05-19T15:29:13.489Z,11.82
2023-05-19T15:34:15.067Z,11.97
2023-05-19T15:39:18.238Z,11.71
2023-05-19T15:44:19.826Z,11.70
2023-05-19T15:49:22.469Z,12.01
2023-05-19T15:54:25.460Z,11.67
2023-05-19T15:59:27.098Z,11.57
2023-05-19T16:04:28.768Z,11.53
2023-05-19T16:09:32.188Z,11.90
2023-05-19T16:14:33.850Z,11.69
2023-05-19T16:19:35.436Z,11.76
2023-05-19T16:24:38.477Z,11.86
2023-05-19T16:29:40.136Z,11.77
2023-05-19T16:34:41.799Z,12.20
2023-05-19T16:39:44.698Z,12.63
2023-05-19T16:44:46.349Z,12.40
2023-05-19T16:49:47.906Z,12.27
2023-05-19T16:54:50.839Z,11.97
2023-05-19T16:59:52.538Z,12.18
2023-05-19T17:04:54.146Z,12.18
2023-05-19T17:09:57.078Z,12.19
2023-05-19T17:14:58.737Z,11.92
2023-05-19T17:20:00.312Z,11.84
2023-05-19T17:25:03.733Z,11.68
2023-05-19T17:30:06.634Z,11.74
2023-05-19T17:35:08.729Z,11.55
2023-05-19T17:40:12.774Z,11.50
2023-05-19T17:45:14.358Z,11.52
2023-05-19T17:50:16.149Z,11.77
2023-05-19T17:55:20.473Z,11.74
2023-05-19T18:00:23.078Z,11.71
2023-05-19T18:05:25.507Z,11.80
2023-05-19T18:10:29.781Z,11.72
2023-05-19T18:15:31.337Z,11.46
2023-05-19T18:20:33.585Z,11.35
2023-05-19T18:25:36.838Z,11.44
2023-05-19T18:30:38.497Z,11.33
2023-05-19T18:35:40.078Z,11.32
2023-05-19T18:40:44.549Z,11.24
2023-05-19T18:45:46.772Z,11.32
2023-05-19T18:50:48.434Z,11.33
2023-05-19T18:55:51.478Z,11.15
2023-05-19T19:00:54.749Z,10.99
2023-05-19T19:05:57.541Z,11.13
2023-05-19T19:11:00.484Z,11.22
2023-05-19T19:16:02.088Z,11.25
2023-05-19T19:21:04.189Z,11.08
2023-05-19T19:26:07.260Z,11.10
2023-05-19T19:31:08.899Z,11.12
2023-05-19T19:36:10.494Z,11.30
2023-05-19T19:41:13.486Z,11.13
2023-05-19T19:46:15.200Z,11.01
2023-05-19T19:51:17.121Z,11.10
2023-05-19T19:56:20.169Z,10.90
2023-05-19T20:01:21.801Z,10.97
2023-05-19T20:06:23.488Z,11.05
2023-05-19T20:11:26.531Z,11.07
2023-05-19T20:21:43.626Z,11.03
2023-05-19T20:26:46.559Z,10.94
2023-05-19T20:31:48.123Z,11.04
2023-05-19T20:36:49.740Z,10.94
2023-05-19T20:41:52.683Z,10.87
2023-05-19T20:46:54.323Z,10.90
2023-05-19T20:51:56.750Z,10.89
2023-05-19T20:56:59.715Z,10.65
2023-05-19T21:02:01.375Z,10.62
2023-05-19T21:07:03.024Z,10.79
2023-05-19T21:12:06.349Z,10.90
2023-05-19T21:17:08.295Z,11.03
2023-05-19T21:22:10.121Z,11.05
2023-05-19T21:27:13.209Z,10.91
2023-05-19T21:32:14.892Z,11.18
2023-05-19T21:37:16.532Z,10.94
2023-05-19T21:42:19.547Z,10.94
2023-05-19T21:47:21.244Z,10.94
2023-05-19T21:52:22.820Z,10.94
2023-05-19T21:57:25.780Z,10.94
2023-05-19T22:02:27.486Z,11.04
2023-05-19T22:07:29.065Z,11.28
2023-05-19T22:12:32.128Z,11.14
2023-05-19T22:17:33.811Z,11.19
2023-05-19T22:22:35.594Z,11.25
2023-05-19T22:27:38.586Z,11.17
2023-05-19T22:32:40.234Z,11.20
2023-05-19T22:37:41.984Z,11.18
2023-05-19T22:42:44.900Z,11.19
2023-05-19T22:47:46.730Z,11.18
2023-05-19T22:52:48.313Z,11.13
2023-05-19T22:57:51.312Z,11.12
2023-05-19T23:02:52.927Z,11.12
2023-05-19T23:07:54.636Z,11.04
2023-05-19T23:12:57.632Z,11.11
2023-05-19T23:17:59.252Z,11.07
2023-05-19T23:23:00.994Z,11.05
2023-05-19T23:28:04.337Z,11.08
2023-05-19T23:33:05.987Z,11.04
2023-05-19T23:38:07.784Z,11.08
2023-05-19T23:43:10.743Z,11.07
2023-05-19T23:48:12.501Z,11.11
2023-05-19T23:53:14.224Z,11.09
2023-05-19T23:58:17.241Z,11.05
